sensor_id;sensor_type;location;lat;lon;timestamp;temperature;humidity
32201;DHT22;18701;45.588;5.288;2022-07-12T00:01:53;22.50;98.00
32201;DHT22;18701;45.588;5.288;2022-07-12T00:04:19;22.30;98.30
32201;DHT22;18701;45.588;5.288;2022-07-12T00:06:45;22.40;98.20
32201;DHT22;18701;45.588;5.288;2022-07-12T00:09:11;22.50;98.30
32201;DHT22;18701;45.588;5.288;2022-07-12T00:11:36;22.30;98.30
32201;DHT22;18701;45.588;5.288;2022-07-12T00:14:03;22.20;98.40
32201;DHT22;18701;45.588;5.288;2022-07-12T00:16:30;22.30;98.40
32201;DHT22;18701;45.588;5.288;2022-07-12T00:18:55;22.20;98.40
32201;DHT22;18701;45.588;5.288;2022-07-12T00:21:24;22.20;98.70
32201;DHT22;18701;45.588;5.288;2022-07-12T00:23:52;22.40;98.60
32201;DHT22;18701;45.588;5.288;2022-07-12T00:26:18;22.20;98.60
32201;DHT22;18701;45.588;5.288;2022-07-12T00:28:44;22.10;98.70
32201;DHT22;18701;45.588;5.288;2022-07-12T00:31:10;21.90;98.90
32201;DHT22;18701;45.588;5.288;2022-07-12T00:33:35;21.80;99.20
32201;DHT22;18701;45.588;5.288;2022-07-12T00:36:01;21.80;99.30
32201;DHT22;18701;45.588;5.288;2022-07-12T00:38:27;21.70;99.40
32201;DHT22;18701;45.588;5.288;2022-07-12T00:40:53;21.70;99.50
32201;DHT22;18701;45.588;5.288;2022-07-12T00:43:18;21.70;99.50
32201;DHT22;18701;45.588;5.288;2022-07-12T00:45:44;21.60;99.90
32201;DHT22;18701;45.588;5.288;2022-07-12T00:48:10;21.70;99.70
32201;DHT22;18701;45.588;5.288;2022-07-12T00:50:36;21.50;99.70
32201;DHT22;18701;45.588;5.288;2022-07-12T00:53:02;21.70;99.60
32201;DHT22;18701;45.588;5.288;2022-07-12T00:55:28;21.60;99.60
32201;DHT22;18701;45.588;5.288;2022-07-12T00:57:54;21.60;99.60
32201;DHT22;18701;45.588;5.288;2022-07-12T01:00:25;21.50;99.80
32201;DHT22;18701;45.588;5.288;2022-07-12T01:03:00;21.60;99.60
32201;DHT22;18701;45.588;5.288;2022-07-12T01:05:27;21.70;99.60
32201;DHT22;18701;45.588;5.288;2022-07-12T01:07:54;21.70;99.60
32201;DHT22;18701;45.588;5.288;2022-07-12T01:10:22;21.40;99.90
32201;DHT22;18701;45.588;5.288;2022-07-12T01:12:49;21.40;99.90
32201;DHT22;18701;45.588;5.288;2022-07-12T01:15:14;21.40;99.90
32201;DHT22;18701;45.588;5.288;2022-07-12T01:17:40;21.40;99.90
32201;DHT22;18701;45.588;5.288;2022-07-12T01:20:06;21.30;99.90
32201;DHT22;18701;45.588;5.288;2022-07-12T01:22:34;21.40;99.90
32201;DHT22;18701;45.588;5.288;2022-07-12T01:25:01;21.30;99.90
32201;DHT22;18701;45.588;5.288;2022-07-12T01:27:28;21.30;99.90
32201;DHT22;18701;45.588;5.288;2022-07-12T01:29:54;21.30;99.90
32201;DHT22;18701;45.588;5.288;2022-07-12T01:32:20;21.30;99.90
32201;DHT22;18701;45.588;5.288;2022-07-12T01:37:19;21.00;99.90
32201;DHT22;18701;45.588;5.288;2022-07-12T01:39:45;21.10;99.90
32201;DHT22;18701;45.588;5.288;2022-07-12T01:42:12;20.90;99.90
32201;DHT22;18701;45.588;5.288;2022-07-12T01:44:37;20.80;99.90
32201;DHT22;18701;45.588;5.288;2022-07-12T01:47:03;20.90;99.90
32201;DHT22;18701;45.588;5.288;2022-07-12T01:49:29;20.80;99.90
32201;DHT22;18701;45.588;5.288;2022-07-12T01:51:55;20.80;99.90
32201;DHT22;18701;45.588;5.288;2022-07-12T01:54:27;20.70;99.90
32201;DHT22;18701;45.588;5.288;2022-07-12T01:56:53;20.80;99.90
32201;DHT22;18701;45.588;5.288;2022-07-12T01:59:20;20.80;99.90
32201;DHT22;18701;45.588;5.288;2022-07-12T02:01:46;20.60;99.90
32201;DHT22;18701;45.588;5.288;2022-07-12T02:04:15;20.70;99.90
32201;DHT22;18701;45.588;5.288;2022-07-12T02:06:43;20.50;99.90
32201;DHT22;18701;45.588;5.288;2022-07-12T02:09:09;20.60;99.90
32201;DHT22;18701;45.588;5.288;2022-07-12T02:11:34;20.60;99.90
32201;DHT22;18701;45.588;5.288;2022-07-12T02:14:00;20.60;99.90
32201;DHT22;18701;45.588;5.288;2022-07-12T02:16:26;20.50;99.90
32201;DHT22;18701;45.588;5.288;2022-07-12T02:18:51;20.50;99.90
32201;DHT22;18701;45.588;5.288;2022-07-12T02:21:17;20.30;99.90
32201;DHT22;18701;45.588;5.288;2022-07-12T02:23:42;20.50;99.90
32201;DHT22;18701;45.588;5.288;2022-07-12T02:26:08;20.50;99.90
32201;DHT22;18701;45.588;5.288;2022-07-12T02:28:34;20.30;99.90
32201;DHT22;18701;45.588;5.288;2022-07-12T02:30:59;20.40;99.90
32201;DHT22;18701;45.588;5.288;2022-07-12T02:33:25;20.30;99.90
32201;DHT22;18701;45.588;5.288;2022-07-12T02:35:53;20.30;99.90
32201;DHT22;18701;45.588;5.288;2022-07-12T02:38:19;20.20;99.90
32201;DHT22;18701;45.588;5.288;2022-07-12T02:40:47;20.30;99.90
32201;DHT22;18701;45.588;5.288;2022-07-12T02:43:30;20.20;99.90
32201;DHT22;18701;45.588;5.288;2022-07-12T02:46:10;20.00;99.90
32201;DHT22;18701;45.588;5.288;2022-07-12T02:48:36;20.20;99.90
32201;DHT22;18701;45.588;5.288;2022-07-12T02:51:02;20.20;99.90
32201;DHT22;18701;45.588;5.288;2022-07-12T02:53:29;20.10;99.90
32201;DHT22;18701;45.588;5.288;2022-07-12T02:55:54;20.20;99.90
32201;DHT22;18701;45.588;5.288;2022-07-12T02:58:23;20.20;99.90
32201;DHT22;18701;45.588;5.288;2022-07-12T03:00:49;20.30;99.90
32201;DHT22;18701;45.588;5.288;2022-07-12T03:03:15;20.30;99.90
32201;DHT22;18701;45.588;5.288;2022-07-12T03:05:41;20.10;99.90
32201;DHT22;18701;45.588;5.288;2022-07-12T03:08:08;20.10;99.90
32201;DHT22;18701;45.588;5.288;2022-07-12T03:10:34;19.90;99.90
32201;DHT22;18701;45.588;5.288;2022-07-12T03:13:00;20.00;99.90
32201;DHT22;18701;45.588;5.288;2022-07-12T03:15:26;19.80;99.90
32201;DHT22;18701;45.588;5.288;2022-07-12T03:17:53;20.00;99.90
32201;DHT22;18701;45.588;5.288;2022-07-12T03:20:19;19.90;99.90
32201;DHT22;18701;45.588;5.288;2022-07-12T03:22:44;19.80;99.90
32201;DHT22;18701;45.588;5.288;2022-07-12T03:25:14;19.90;99.90
32201;DHT22;18701;45.588;5.288;2022-07-12T03:27:40;20.00;99.90
32201;DHT22;18701;45.588;5.288;2022-07-12T03:30:06;20.00;99.90
32201;DHT22;18701;45.588;5.288;2022-07-12T03:32:32;20.00;99.90
32201;DHT22;18701;45.588;5.288;2022-07-12T03:34:58;20.00;99.90
32201;DHT22;18701;45.588;5.288;2022-07-12T03:37:23;19.90;99.90
32201;DHT22;18701;45.588;5.288;2022-07-12T03:39:49;19.90;99.90
32201;DHT22;18701;45.588;5.288;2022-07-12T03:42:15;19.70;99.90
32201;DHT22;18701;45.588;5.288;2022-07-12T03:44:41;19.70;99.90
32201;DHT22;18701;45.588;5.288;2022-07-12T03:47:06;19.70;99.90
32201;DHT22;18701;45.588;5.288;2022-07-12T03:49:32;19.70;99.90
32201;DHT22;18701;45.588;5.288;2022-07-12T03:51:58;19.60;99.90
32201;DHT22;18701;45.588;5.288;2022-07-12T03:54:23;19.50;99.90
32201;DHT22;18701;45.588;5.288;2022-07-12T03:56:49;19.70;99.90
32201;DHT22;18701;45.588;5.288;2022-07-12T03:59:34;19.60;99.90
32201;DHT22;18701;45.588;5.288;2022-07-12T04:02:00;19.50;99.90
32201;DHT22;18701;45.588;5.288;2022-07-12T04:04:27;19.50;99.90
32201;DHT22;18701;45.588;5.288;2022-07-12T04:06:53;19.50;99.90
32201;DHT22;18701;45.588;5.288;2022-07-12T04:09:19;19.70;99.90
32201;DHT22;18701;45.588;5.288;2022-07-12T04:11:44;19.60;99.90
32201;DHT22;18701;45.588;5.288;2022-07-12T04:14:10;19.60;99.90
32201;DHT22;18701;45.588;5.288;2022-07-12T04:16:35;19.70;99.90
32201;DHT22;18701;45.588;5.288;2022-07-12T04:19:01;19.60;99.90
32201;DHT22;18701;45.588;5.288;2022-07-12T04:21:27;19.50;99.90
32201;DHT22;18701;45.588;5.288;2022-07-12T04:23:52;19.50;99.90
32201;DHT22;18701;45.588;5.288;2022-07-12T04:26:18;19.50;99.90
32201;DHT22;18701;45.588;5.288;2022-07-12T04:28:44;19.50;99.90
32201;DHT22;18701;45.588;5.288;2022-07-12T04:31:09;19.50;99.90
32201;DHT22;18701;45.588;5.288;2022-07-12T04:33:35;19.50;99.90
32201;DHT22;18701;45.588;5.288;2022-07-12T04:36:01;19.20;99.90
32201;DHT22;18701;45.588;5.288;2022-07-12T04:38:27;19.30;99.90
32201;DHT22;18701;45.588;5.288;2022-07-12T04:40:52;19.60;99.90
32201;DHT22;18701;45.588;5.288;2022-07-12T04:43:18;19.60;99.90
32201;DHT22;18701;45.588;5.288;2022-07-12T04:45:44;19.50;99.90
32201;DHT22;18701;45.588;5.288;2022-07-12T04:48:12;19.60;99.90
32201;DHT22;18701;45.588;5.288;2022-07-12T04:50:38;19.40;99.90
32201;DHT22;18701;45.588;5.288;2022-07-12T04:53:04;19.40;99.90
32201;DHT22;18701;45.588;5.288;2022-07-12T04:55:29;19.60;99.90
32201;DHT22;18701;45.588;5.288;2022-07-12T04:57:55;19.60;99.90
32201;DHT22;18701;45.588;5.288;2022-07-12T05:00:24;19.60;99.90
32201;DHT22;18701;45.588;5.288;2022-07-12T05:02:50;19.70;99.90
32201;DHT22;18701;45.588;5.288;2022-07-12T05:05:15;19.70;99.90
32201;DHT22;18701;45.588;5.288;2022-07-12T05:07:41;19.70;99.90
32201;DHT22;18701;45.588;5.288;2022-07-12T05:10:07;19.80;99.90
32201;DHT22;18701;45.588;5.288;2022-07-12T05:12:34;19.80;99.90
32201;DHT22;18701;45.588;5.288;2022-07-12T05:15:01;19.80;99.90
32201;DHT22;18701;45.588;5.288;2022-07-12T05:17:26;19.70;99.90
32201;DHT22;18701;45.588;5.288;2022-07-12T05:19:52;19.80;99.90
32201;DHT22;18701;45.588;5.288;2022-07-12T05:22:18;19.90;99.90
32201;DHT22;18701;45.588;5.288;2022-07-12T05:24:43;20.00;99.90
32201;DHT22;18701;45.588;5.288;2022-07-12T05:27:09;19.90;99.90
32201;DHT22;18701;45.588;5.288;2022-07-12T05:29:35;19.70;99.90
32201;DHT22;18701;45.588;5.288;2022-07-12T05:32:01;19.80;99.90
32201;DHT22;18701;45.588;5.288;2022-07-12T05:34:27;19.90;99.90
32201;DHT22;18701;45.588;5.288;2022-07-12T05:36:53;19.80;99.90
32201;DHT22;18701;45.588;5.288;2022-07-12T05:39:19;19.90;99.90
32201;DHT22;18701;45.588;5.288;2022-07-12T05:41:45;19.90;99.90
32201;DHT22;18701;45.588;5.288;2022-07-12T05:44:12;20.00;99.90
32201;DHT22;18701;45.588;5.288;2022-07-12T05:46:37;20.00;99.90
32201;DHT22;18701;45.588;5.288;2022-07-12T05:49:04;20.00;99.90
32201;DHT22;18701;45.588;5.288;2022-07-12T05:51:30;20.10;99.90
32201;DHT22;18701;45.588;5.288;2022-07-12T05:54:14;20.20;99.90
32201;DHT22;18701;45.588;5.288;2022-07-12T05:56:40;20.10;99.90
32201;DHT22;18701;45.588;5.288;2022-07-12T05:59:05;20.10;99.90
32201;DHT22;18701;45.588;5.288;2022-07-12T06:01:31;20.10;99.90
32201;DHT22;18701;45.588;5.288;2022-07-12T06:03:57;20.20;99.90
32201;DHT22;18701;45.588;5.288;2022-07-12T06:06:22;20.40;99.90
32201;DHT22;18701;45.588;5.288;2022-07-12T06:08:48;20.50;99.90
32201;DHT22;18701;45.588;5.288;2022-07-12T06:11:13;20.50;99.90
32201;DHT22;18701;45.588;5.288;2022-07-12T06:13:39;20.60;99.90
32201;DHT22;18701;45.588;5.288;2022-07-12T06:16:05;20.80;99.90
32201;DHT22;18701;45.588;5.288;2022-07-12T06:18:34;20.70;99.90
32201;DHT22;18701;45.588;5.288;2022-07-12T06:20:59;20.80;99.90
32201;DHT22;18701;45.588;5.288;2022-07-12T06:23:25;20.80;99.90
32201;DHT22;18701;45.588;5.288;2022-07-12T06:25:54;20.80;99.90
32201;DHT22;18701;45.588;5.288;2022-07-12T06:28:19;20.70;99.90
32201;DHT22;18701;45.588;5.288;2022-07-12T06:30:45;20.90;99.90
32201;DHT22;18701;45.588;5.288;2022-07-12T06:33:11;20.80;99.90
32201;DHT22;18701;45.588;5.288;2022-07-12T06:35:36;20.80;99.90
32201;DHT22;18701;45.588;5.288;2022-07-12T06:38:02;20.90;99.90
32201;DHT22;18701;45.588;5.288;2022-07-12T06:40:28;20.90;99.90
32201;DHT22;18701;45.588;5.288;2022-07-12T06:42:53;20.80;99.90
32201;DHT22;18701;45.588;5.288;2022-07-12T06:45:19;20.90;99.90
32201;DHT22;18701;45.588;5.288;2022-07-12T06:47:45;20.90;99.90
32201;DHT22;18701;45.588;5.288;2022-07-12T06:50:10;21.30;99.90
32201;DHT22;18701;45.588;5.288;2022-07-12T06:52:36;21.40;99.90
32201;DHT22;18701;45.588;5.288;2022-07-12T06:55:02;21.50;99.90
32201;DHT22;18701;45.588;5.288;2022-07-12T06:57:28;21.40;99.90
32201;DHT22;18701;45.588;5.288;2022-07-12T06:59:58;21.30;99.90
32201;DHT22;18701;45.588;5.288;2022-07-12T07:02:23;21.50;99.90
32201;DHT22;18701;45.588;5.288;2022-07-12T07:04:49;21.60;99.90
32201;DHT22;18701;45.588;5.288;2022-07-12T07:07:15;21.40;99.90
32201;DHT22;18701;45.588;5.288;2022-07-12T07:09:40;21.50;99.90
32201;DHT22;18701;45.588;5.288;2022-07-12T07:12:07;21.50;99.90
32201;DHT22;18701;45.588;5.288;2022-07-12T07:14:33;21.60;99.90
32201;DHT22;18701;45.588;5.288;2022-07-12T07:16:58;21.50;99.90
32201;DHT22;18701;45.588;5.288;2022-07-12T07:19:24;21.70;99.90
32201;DHT22;18701;45.588;5.288;2022-07-12T07:21:52;21.70;99.90
32201;DHT22;18701;45.588;5.288;2022-07-12T07:24:19;21.70;99.90
32201;DHT22;18701;45.588;5.288;2022-07-12T07:26:45;21.90;99.90
32201;DHT22;18701;45.588;5.288;2022-07-12T07:29:11;21.80;99.90
32201;DHT22;18701;45.588;5.288;2022-07-12T07:31:55;22.00;99.90
32201;DHT22;18701;45.588;5.288;2022-07-12T07:34:20;22.00;99.90
32201;DHT22;18701;45.588;5.288;2022-07-12T07:36:47;22.20;99.90
32201;DHT22;18701;45.588;5.288;2022-07-12T07:39:13;22.50;99.90
32201;DHT22;18701;45.588;5.288;2022-07-12T07:41:38;22.50;99.90
32201;DHT22;18701;45.588;5.288;2022-07-12T07:44:04;22.60;99.90
32201;DHT22;18701;45.588;5.288;2022-07-12T07:46:29;22.60;99.90
32201;DHT22;18701;45.588;5.288;2022-07-12T07:48:55;22.50;99.90
32201;DHT22;18701;45.588;5.288;2022-07-12T07:51:21;22.50;99.90
32201;DHT22;18701;45.588;5.288;2022-07-12T07:53:46;22.70;99.90
32201;DHT22;18701;45.588;5.288;2022-07-12T07:56:12;22.50;99.90
32201;DHT22;18701;45.588;5.288;2022-07-12T07:58:37;22.70;99.90
32201;DHT22;18701;45.588;5.288;2022-07-12T08:01:03;22.80;99.90
32201;DHT22;18701;45.588;5.288;2022-07-12T08:03:29;22.90;99.90
32201;DHT22;18701;45.588;5.288;2022-07-12T08:05:54;23.00;99.90
32201;DHT22;18701;45.588;5.288;2022-07-12T08:08:23;22.90;99.90
32201;DHT22;18701;45.588;5.288;2022-07-12T08:10:50;23.20;99.90
32201;DHT22;18701;45.588;5.288;2022-07-12T08:13:19;23.30;99.90
32201;DHT22;18701;45.588;5.288;2022-07-12T08:15:44;23.40;99.90
32201;DHT22;18701;45.588;5.288;2022-07-12T08:18:12;23.30;99.90
32201;DHT22;18701;45.588;5.288;2022-07-12T08:20:37;23.30;99.90
32201;DHT22;18701;45.588;5.288;2022-07-12T08:23:03;23.50;99.90
32201;DHT22;18701;45.588;5.288;2022-07-12T08:25:29;23.70;99.90
32201;DHT22;18701;45.588;5.288;2022-07-12T08:27:54;23.60;99.90
32201;DHT22;18701;45.588;5.288;2022-07-12T08:30:20;23.70;99.90
32201;DHT22;18701;45.588;5.288;2022-07-12T08:32:49;23.70;99.90
32201;DHT22;18701;45.588;5.288;2022-07-12T08:35:15;23.80;99.90
32201;DHT22;18701;45.588;5.288;2022-07-12T08:37:43;23.80;99.90
32201;DHT22;18701;45.588;5.288;2022-07-12T08:40:09;23.90;99.90
32201;DHT22;18701;45.588;5.288;2022-07-12T08:42:36;24.10;99.90
32201;DHT22;18701;45.588;5.288;2022-07-12T08:45:05;24.20;99.50
32201;DHT22;18701;45.588;5.288;2022-07-12T08:47:31;24.30;99.90
32201;DHT22;18701;45.588;5.288;2022-07-12T08:50:17;24.30;99.70
32201;DHT22;18701;45.588;5.288;2022-07-12T08:52:48;24.60;99.50
32201;DHT22;18701;45.588;5.288;2022-07-12T08:55:34;24.70;98.80
32201;DHT22;18701;45.588;5.288;2022-07-12T08:58:02;24.70;98.70
32201;DHT22;18701;45.588;5.288;2022-07-12T09:00:29;24.90;98.90
32201;DHT22;18701;45.588;5.288;2022-07-12T09:02:56;24.80;98.50
32201;DHT22;18701;45.588;5.288;2022-07-12T09:05:32;24.80;98.40
32201;DHT22;18701;45.588;5.288;2022-07-12T09:08:08;24.80;97.80
32201;DHT22;18701;45.588;5.288;2022-07-12T09:10:50;24.90;98.80
32201;DHT22;18701;45.588;5.288;2022-07-12T09:13:20;25.20;98.40
32201;DHT22;18701;45.588;5.288;2022-07-12T09:15:45;25.20;98.20
32201;DHT22;18701;45.588;5.288;2022-07-12T09:18:19;25.20;98.00
32201;DHT22;18701;45.588;5.288;2022-07-12T09:20:53;25.10;98.10
32201;DHT22;18701;45.588;5.288;2022-07-12T09:23:19;25.30;97.70
32201;DHT22;18701;45.588;5.288;2022-07-12T09:25:48;25.40;97.20
32201;DHT22;18701;45.588;5.288;2022-07-12T09:28:18;25.30;97.40
32201;DHT22;18701;45.588;5.288;2022-07-12T09:30:52;25.30;96.90
32201;DHT22;18701;45.588;5.288;2022-07-12T09:33:19;25.30;97.50
32201;DHT22;18701;45.588;5.288;2022-07-12T09:36:04;25.30;97.20
32201;DHT22;18701;45.588;5.288;2022-07-12T09:38:50;25.60;97.20
32201;DHT22;18701;45.588;5.288;2022-07-12T09:41:21;25.90;97.90
32201;DHT22;18701;45.588;5.288;2022-07-12T09:43:56;25.90;96.50
32201;DHT22;18701;45.588;5.288;2022-07-12T09:46:22;25.90;96.80
32201;DHT22;18701;45.588;5.288;2022-07-12T09:48:49;26.00;96.80
32201;DHT22;18701;45.588;5.288;2022-07-12T09:51:18;26.20;96.50
32201;DHT22;18701;45.588;5.288;2022-07-12T09:53:45;26.40;96.80
32201;DHT22;18701;45.588;5.288;2022-07-12T09:56:18;26.40;96.10
32201;DHT22;18701;45.588;5.288;2022-07-12T09:58:57;26.60;95.70
32201;DHT22;18701;45.588;5.288;2022-07-12T10:01:23;26.30;95.50
32201;DHT22;18701;45.588;5.288;2022-07-12T10:03:51;26.20;96.10
32201;DHT22;18701;45.588;5.288;2022-07-12T10:06:25;26.40;95.50
32201;DHT22;18701;45.588;5.288;2022-07-12T10:08:51;26.60;95.40
32201;DHT22;18701;45.588;5.288;2022-07-12T10:11:20;26.70;95.30
32201;DHT22;18701;45.588;5.288;2022-07-12T10:13:49;26.90;95.50
32201;DHT22;18701;45.588;5.288;2022-07-12T10:16:25;26.90;94.90
32201;DHT22;18701;45.588;5.288;2022-07-12T10:19:23;26.90;94.70
32201;DHT22;18701;45.588;5.288;2022-07-12T10:21:50;27.00;95.00
32201;DHT22;18701;45.588;5.288;2022-07-12T10:29:40;27.30;95.60
32201;DHT22;18701;45.588;5.288;2022-07-12T10:34:59;27.60;95.90
32201;DHT22;18701;45.588;5.288;2022-07-12T10:37:25;27.70;95.80
32201;DHT22;18701;45.588;5.288;2022-07-12T10:42:35;28.00;94.70
32201;DHT22;18701;45.588;5.288;2022-07-12T10:45:16;28.00;94.20
32201;DHT22;18701;45.588;5.288;2022-07-12T10:48:05;27.80;94.20
32201;DHT22;18701;45.588;5.288;2022-07-12T10:53:26;28.10;94.20
32201;DHT22;18701;45.588;5.288;2022-07-12T10:56:13;28.20;94.80
32201;DHT22;18701;45.588;5.288;2022-07-12T11:01:24;28.40;93.90
32201;DHT22;18701;45.588;5.288;2022-07-12T11:03:55;28.30;93.90
32201;DHT22;18701;45.588;5.288;2022-07-12T11:06:25;28.30;94.00
32201;DHT22;18701;45.588;5.288;2022-07-12T11:08:56;28.20;93.90
32201;DHT22;18701;45.588;5.288;2022-07-12T11:11:24;28.30;93.70
32201;DHT22;18701;45.588;5.288;2022-07-12T11:13:51;28.60;93.30
32201;DHT22;18701;45.588;5.288;2022-07-12T11:16:17;28.40;92.90
32201;DHT22;18701;45.588;5.288;2022-07-12T11:18:43;28.60;93.10
32201;DHT22;18701;45.588;5.288;2022-07-12T11:21:09;28.80;92.80
32201;DHT22;18701;45.588;5.288;2022-07-12T11:23:35;29.10;92.80
32201;DHT22;18701;45.588;5.288;2022-07-12T11:26:02;29.40;93.50
32201;DHT22;18701;45.588;5.288;2022-07-12T11:28:32;29.50;92.70
32201;DHT22;18701;45.588;5.288;2022-07-12T11:31:03;29.50;92.30
32201;DHT22;18701;45.588;5.288;2022-07-12T11:33:34;29.70;92.90
32201;DHT22;18701;45.588;5.288;2022-07-12T11:36:03;29.30;91.60
32201;DHT22;18701;45.588;5.288;2022-07-12T11:38:29;29.30;91.50
32201;DHT22;18701;45.588;5.288;2022-07-12T11:40:56;29.50;91.50
32201;DHT22;18701;45.588;5.288;2022-07-12T11:43:22;29.40;91.70
32201;DHT22;18701;45.588;5.288;2022-07-12T11:45:48;29.40;91.60
32201;DHT22;18701;45.588;5.288;2022-07-12T11:48:14;29.50;91.50
32201;DHT22;18701;45.588;5.288;2022-07-12T11:50:42;29.50;91.30
32201;DHT22;18701;45.588;5.288;2022-07-12T11:53:26;29.50;92.00
32201;DHT22;18701;45.588;5.288;2022-07-12T11:55:57;29.60;90.90
32201;DHT22;18701;45.588;5.288;2022-07-12T11:58:25;29.90;92.10
32201;DHT22;18701;45.588;5.288;2022-07-12T12:00:52;29.70;91.10
32201;DHT22;18701;45.588;5.288;2022-07-12T12:03:19;29.70;91.60
32201;DHT22;18701;45.588;5.288;2022-07-12T12:05:52;29.80;91.50
32201;DHT22;18701;45.588;5.288;2022-07-12T12:08:18;30.10;91.90
32201;DHT22;18701;45.588;5.288;2022-07-12T12:10:59;30.10;91.60
32201;DHT22;18701;45.588;5.288;2022-07-12T12:13:28;30.20;90.90
32201;DHT22;18701;45.588;5.288;2022-07-12T12:16:02;30.20;91.40
32201;DHT22;18701;45.588;5.288;2022-07-12T12:18:35;30.20;90.90
32201;DHT22;18701;45.588;5.288;2022-07-12T12:21:02;30.20;90.30
32201;DHT22;18701;45.588;5.288;2022-07-12T12:23:29;30.20;90.60
32201;DHT22;18701;45.588;5.288;2022-07-12T12:26:15;30.30;91.10
32201;DHT22;18701;45.588;5.288;2022-07-12T12:28:46;30.30;90.70
32201;DHT22;18701;45.588;5.288;2022-07-12T12:31:13;30.60;90.90
32201;DHT22;18701;45.588;5.288;2022-07-12T12:36:22;30.70;90.20
32201;DHT22;18701;45.588;5.288;2022-07-12T12:38:53;30.80;90.30
32201;DHT22;18701;45.588;5.288;2022-07-12T12:41:19;30.70;89.70
32201;DHT22;18701;45.588;5.288;2022-07-12T12:43:55;30.40;88.60
32201;DHT22;18701;45.588;5.288;2022-07-12T12:46:21;30.80;89.00
32201;DHT22;18701;45.588;5.288;2022-07-12T12:48:47;31.30;90.40
32201;DHT22;18701;45.588;5.288;2022-07-12T12:51:14;31.60;89.10
32201;DHT22;18701;45.588;5.288;2022-07-12T12:53:41;31.70;87.10
32201;DHT22;18701;45.588;5.288;2022-07-12T12:56:10;31.10;85.40
32201;DHT22;18701;45.588;5.288;2022-07-12T12:58:36;31.10;83.90
32201;DHT22;18701;45.588;5.288;2022-07-12T13:01:03;31.60;84.80
32201;DHT22;18701;45.588;5.288;2022-07-12T13:03:29;31.90;85.80
32201;DHT22;18701;45.588;5.288;2022-07-12T13:05:55;32.30;84.70
32201;DHT22;18701;45.588;5.288;2022-07-12T13:08:21;32.10;82.70
32201;DHT22;18701;45.588;5.288;2022-07-12T13:10:47;32.40;82.50
32201;DHT22;18701;45.588;5.288;2022-07-12T13:13:34;32.40;80.10
32201;DHT22;18701;45.588;5.288;2022-07-12T13:16:00;32.60;79.10
32201;DHT22;18701;45.588;5.288;2022-07-12T13:18:26;32.30;69.30
32201;DHT22;18701;45.588;5.288;2022-07-12T13:20:51;32.40;71.50
32201;DHT22;18701;45.588;5.288;2022-07-12T13:23:17;32.50;71.40
32201;DHT22;18701;45.588;5.288;2022-07-12T13:25:43;32.90;73.60
32201;DHT22;18701;45.588;5.288;2022-07-12T13:28:08;32.80;71.20
32201;DHT22;18701;45.588;5.288;2022-07-12T13:30:36;32.70;72.00
32201;DHT22;18701;45.588;5.288;2022-07-12T13:33:01;32.90;71.50
32201;DHT22;18701;45.588;5.288;2022-07-12T13:35:27;32.70;71.90
32201;DHT22;18701;45.588;5.288;2022-07-12T13:37:55;33.00;71.60
32201;DHT22;18701;45.588;5.288;2022-07-12T13:40:20;33.00;71.60
32201;DHT22;18701;45.588;5.288;2022-07-12T13:42:49;32.90;70.90
32201;DHT22;18701;45.588;5.288;2022-07-12T13:45:16;33.00;70.00
32201;DHT22;18701;45.588;5.288;2022-07-12T13:47:44;32.90;71.80
32201;DHT22;18701;45.588;5.288;2022-07-12T13:50:12;33.00;71.40
32201;DHT22;18701;45.588;5.288;2022-07-12T13:52:37;33.20;73.00
32201;DHT22;18701;45.588;5.288;2022-07-12T13:55:05;33.00;72.30
32201;DHT22;18701;45.588;5.288;2022-07-12T13:57:31;32.80;71.80
32201;DHT22;18701;45.588;5.288;2022-07-12T13:59:57;32.70;70.20
32201;DHT22;18701;45.588;5.288;2022-07-12T14:02:24;32.50;70.10
32201;DHT22;18701;45.588;5.288;2022-07-12T14:04:50;32.60;70.40
32201;DHT22;18701;45.588;5.288;2022-07-12T14:07:19;33.00;68.90
32201;DHT22;18701;45.588;5.288;2022-07-12T14:09:45;33.20;69.70
32201;DHT22;18701;45.588;5.288;2022-07-12T14:12:11;32.60;68.80
32201;DHT22;18701;45.588;5.288;2022-07-12T14:14:37;32.90;69.00
32201;DHT22;18701;45.588;5.288;2022-07-12T14:17:21;33.00;69.60
32201;DHT22;18701;45.588;5.288;2022-07-12T14:19:47;33.10;69.10
32201;DHT22;18701;45.588;5.288;2022-07-12T14:22:12;32.70;69.20
32201;DHT22;18701;45.588;5.288;2022-07-12T14:24:38;32.30;69.20
32201;DHT22;18701;45.588;5.288;2022-07-12T14:27:04;32.10;68.80
32201;DHT22;18701;45.588;5.288;2022-07-12T14:29:31;32.50;68.50
32201;DHT22;18701;45.588;5.288;2022-07-12T14:31:56;32.40;68.30
32201;DHT22;18701;45.588;5.288;2022-07-12T14:34:23;32.60;69.00
32201;DHT22;18701;45.588;5.288;2022-07-12T14:36:49;32.40;66.30
32201;DHT22;18701;45.588;5.288;2022-07-12T14:39:14;32.50;66.50
32201;DHT22;18701;45.588;5.288;2022-07-12T14:41:40;32.90;67.20
32201;DHT22;18701;45.588;5.288;2022-07-12T14:44:06;32.80;66.10
32201;DHT22;18701;45.588;5.288;2022-07-12T14:46:33;32.80;65.60
32201;DHT22;18701;45.588;5.288;2022-07-12T14:48:58;32.70;64.90
32201;DHT22;18701;45.588;5.288;2022-07-12T14:51:24;32.50;65.20
32201;DHT22;18701;45.588;5.288;2022-07-12T14:53:50;32.50;64.50
32201;DHT22;18701;45.588;5.288;2022-07-12T14:56:20;32.80;64.50
32201;DHT22;18701;45.588;5.288;2022-07-12T14:58:46;32.00;64.80
32201;DHT22;18701;45.588;5.288;2022-07-12T15:01:12;32.30;65.40
32201;DHT22;18701;45.588;5.288;2022-07-12T15:03:37;32.40;65.30
32201;DHT22;18701;45.588;5.288;2022-07-12T15:06:03;32.90;67.00
32201;DHT22;18701;45.588;5.288;2022-07-12T15:08:29;33.20;67.60
32201;DHT22;18701;45.588;5.288;2022-07-12T15:10:56;33.00;65.10
32201;DHT22;18701;45.588;5.288;2022-07-12T15:13:23;32.90;65.50
32201;DHT22;18701;45.588;5.288;2022-07-12T15:15:48;33.00;65.10
32201;DHT22;18701;45.588;5.288;2022-07-12T15:18:15;33.00;67.60
32201;DHT22;18701;45.588;5.288;2022-07-12T15:20:42;32.70;68.10
32201;DHT22;18701;45.588;5.288;2022-07-12T15:23:07;32.90;67.10
32201;DHT22;18701;45.588;5.288;2022-07-12T15:25:33;33.40;69.00
32201;DHT22;18701;45.588;5.288;2022-07-12T15:27:59;32.80;66.60
32201;DHT22;18701;45.588;5.288;2022-07-12T15:30:25;32.70;67.30
32201;DHT22;18701;45.588;5.288;2022-07-12T15:32:51;32.70;67.70
32201;DHT22;18701;45.588;5.288;2022-07-12T15:35:21;32.80;66.40
32201;DHT22;18701;45.588;5.288;2022-07-12T15:37:49;32.70;67.40
32201;DHT22;18701;45.588;5.288;2022-07-12T15:40:15;32.60;69.30
32201;DHT22;18701;45.588;5.288;2022-07-12T15:42:40;32.20;69.30
32201;DHT22;18701;45.588;5.288;2022-07-12T15:45:07;32.10;69.90
32201;DHT22;18701;45.588;5.288;2022-07-12T15:47:32;32.20;70.30
32201;DHT22;18701;45.588;5.288;2022-07-12T15:49:58;32.50;70.40
32201;DHT22;18701;45.588;5.288;2022-07-12T15:52:23;32.70;70.70
32201;DHT22;18701;45.588;5.288;2022-07-12T15:55:08;32.90;70.60